BAW115 EGLL-LIRA
Flight info
| Callsign | BAW115 |
|---|---|
| Flight time | 2h 15m |
| Altitude | FL310 |
| Route | DET L6 DVR L10 RINTI GIMER REKLA GARLO MONEB IRBAK ELKAP |
| Aircraft | COMT/M-SDFGHRWY/L |
Departure
| Time | 2026-05-07 14:45 |
|---|---|
| Airport | London Heathrow Airport (EGLL) |
Arrival
| Time | 2026-05-07 17:00 |
|---|---|
| Airport | Ciampino–G. B. Pastine International Airport (LIRA) |
| Time | Latitude | Longitude | Altitude | Speed | Heading |
|---|---|---|---|---|---|
| 2026-05-07 14:17 | 51.46910 | -0.47728 | 87 ft | 0 kts | 90° |
| 2026-05-07 14:30 | 51.46911 | -0.47732 | 87 ft | 1 kts | 90° |
| 2026-05-07 14:31 | 51.46911 | -0.47756 | 87 ft | 3 kts | 90° |
| 2026-05-07 14:31 | 51.46911 | -0.47788 | 87 ft | 3 kts | 90° |
| 2026-05-07 14:31 | 51.46911 | -0.47820 | 87 ft | 3 kts | 101° |
| 2026-05-07 14:31 | 51.46925 | -0.47841 | 87 ft | 3 kts | 173° |
| 2026-05-07 14:32 | 51.46928 | -0.47842 | 87 ft | 0 kts | 184° |
| 2026-05-07 14:33 | 51.46927 | -0.47842 | 87 ft | 0 kts | 184° |
| 2026-05-07 14:34 | 51.46910 | -0.47845 | 87 ft | 5 kts | 187° |
| 2026-05-07 14:34 | 51.46875 | -0.47852 | 87 ft | 4 kts | 186° |
| 2026-05-07 14:34 | 51.46852 | -0.47856 | 87 ft | 2 kts | 186° |
| 2026-05-07 14:34 | 51.46841 | -0.47858 | 87 ft | 4 kts | 186° |
| 2026-05-07 14:35 | 51.46784 | -0.47869 | 87 ft | 10 kts | 186° |
| 2026-05-07 14:35 | 51.46740 | -0.47925 | 87 ft | 8 kts | 249° |
| 2026-05-07 14:35 | 51.46737 | -0.47970 | 87 ft | 6 kts | 267° |
| 2026-05-07 14:35 | 51.46736 | -0.48032 | 87 ft | 6 kts | 268° |
| 2026-05-07 14:36 | 51.46735 | -0.48100 | 87 ft | 6 kts | 271° |
| 2026-05-07 14:36 | 51.46736 | -0.48189 | 87 ft | 10 kts | 270° |
| 2026-05-07 14:36 | 51.46737 | -0.48291 | 87 ft | 9 kts | 271° |
| 2026-05-07 14:36 | 51.46738 | -0.48396 | 87 ft | 10 kts | 271° |
| 2026-05-07 14:37 | 51.46740 | -0.48516 | 87 ft | 11 kts | 271° |
| 2026-05-07 14:37 | 51.46730 | -0.48721 | 87 ft | 6 kts | 241° |
| 2026-05-07 14:37 | 51.46710 | -0.48742 | 87 ft | 0 kts | 203° |
| 2026-05-07 14:39 | 51.46709 | -0.48743 | 87 ft | 2 kts | 203° |
| 2026-05-07 14:39 | 51.46688 | -0.48752 | 87 ft | 5 kts | 189° |
| 2026-05-07 14:39 | 51.46639 | -0.48755 | 87 ft | 6 kts | 190° |
| 2026-05-07 14:39 | 51.46600 | -0.48771 | 87 ft | 1 kts | 198° |
| 2026-05-07 14:41 | 51.46585 | -0.48779 | 87 ft | 5 kts | 198° |
| 2026-05-07 14:41 | 51.46544 | -0.48796 | 87 ft | 7 kts | 181° |
| 2026-05-07 14:42 | 51.46492 | -0.48760 | 87 ft | 9 kts | 133° |
| 2026-05-07 14:42 | 51.46476 | -0.48657 | 87 ft | 7 kts | 91° |
| 2026-05-07 14:42 | 51.46475 | -0.48636 | 87 ft | 0 kts | 90° |
| 2026-05-07 14:43 | 51.46475 | -0.48541 | 87 ft | 22 kts | 91° |
| 2026-05-07 14:44 | 51.46474 | -0.48109 | 87 ft | 56 kts | 90° |
| 2026-05-07 14:44 | 51.46476 | -0.47286 | 87 ft | 91 kts | 89° |
| 2026-05-07 14:44 | 51.46481 | -0.46140 | 168 ft | 108 kts | 89° |
| 2026-05-07 14:44 | 51.46489 | -0.44892 | 342 ft | 116 kts | 90° |
| 2026-05-07 14:45 | 51.46487 | -0.43565 | 609 ft | 121 kts | 94° |
| 2026-05-07 14:45 | 51.46277 | -0.42264 | 884 ft | 123 kts | 112° |
| 2026-05-07 14:45 | 51.45850 | -0.41051 | 1112 ft | 126 kts | 121° |
| 2026-05-07 14:45 | 51.45401 | -0.39837 | 1344 ft | 128 kts | 120° |
| 2026-05-07 14:46 | 51.44935 | -0.38567 | 1615 ft | 136 kts | 120° |
| 2026-05-07 14:46 | 51.44551 | -0.37167 | 1945 ft | 140 kts | 107° |
| 2026-05-07 14:46 | 51.44261 | -0.35653 | 2298 ft | 144 kts | 107° |
| 2026-05-07 14:46 | 51.43955 | -0.34082 | 2618 ft | 151 kts | 108° |
| 2026-05-07 14:47 | 51.43655 | -0.32434 | 2965 ft | 157 kts | 106° |
| 2026-05-07 14:47 | 51.43367 | -0.30713 | 3339 ft | 162 kts | 105° |
| 2026-05-07 14:47 | 51.43090 | -0.28940 | 3731 ft | 166 kts | 105° |
| 2026-05-07 14:47 | 51.42814 | -0.27135 | 4131 ft | 168 kts | 104° |
| 2026-05-07 14:48 | 51.42550 | -0.25291 | 4501 ft | 173 kts | 104° |
| 2026-05-07 14:48 | 51.42296 | -0.23371 | 4868 ft | 179 kts | 104° |
| 2026-05-07 14:48 | 51.42041 | -0.21399 | 5251 ft | 184 kts | 104° |
| 2026-05-07 14:48 | 51.41765 | -0.19366 | 5604 ft | 190 kts | 105° |
| 2026-05-07 14:49 | 51.41469 | -0.17265 | 5951 ft | 198 kts | 104° |
| 2026-05-07 14:49 | 51.41153 | -0.15029 | 6038 ft | 220 kts | 104° |
| 2026-05-07 14:49 | 51.40805 | -0.12509 | 6066 ft | 240 kts | 104° |
| 2026-05-07 14:49 | 51.40433 | -0.09810 | 6027 ft | 256 kts | 103° |
| 2026-05-07 14:50 | 51.40036 | -0.06976 | 6015 ft | 267 kts | 103° |
| 2026-05-07 14:50 | 51.39618 | -0.04039 | 6032 ft | 276 kts | 104° |
| 2026-05-07 14:50 | 51.39182 | -0.01008 | 6027 ft | 285 kts | 103° |
| 2026-05-07 14:50 | 51.38732 | 0.02105 | 6017 ft | 286 kts | 104° |
| 2026-05-07 14:51 | 51.38284 | 0.05198 | 6028 ft | 284 kts | 104° |
| 2026-05-07 14:51 | 51.37842 | 0.08243 | 6026 ft | 277 kts | 104° |
| 2026-05-07 14:51 | 51.37413 | 0.11205 | 6024 ft | 270 kts | 104° |
| 2026-05-07 14:51 | 51.37009 | 0.14093 | 6028 ft | 264 kts | 103° |
| 2026-05-07 14:52 | 51.36612 | 0.16930 | 6023 ft | 258 kts | 103° |
| 2026-05-07 14:52 | 51.36216 | 0.19702 | 6029 ft | 253 kts | 103° |
| 2026-05-07 14:52 | 51.35963 | 0.21512 | 6024 ft | 250 kts | 103° |
| 2026-05-07 14:52 | 51.35585 | 0.24202 | 6028 ft | 245 kts | 103° |
| 2026-05-07 14:53 | 51.35207 | 0.26833 | 6025 ft | 241 kts | 104° |
| 2026-05-07 14:53 | 51.34843 | 0.29419 | 6028 ft | 236 kts | 103° |
| 2026-05-07 14:53 | 51.34479 | 0.31957 | 6027 ft | 236 kts | 103° |
| 2026-05-07 14:53 | 51.34115 | 0.34529 | 6034 ft | 238 kts | 103° |
| 2026-05-07 14:54 | 51.33741 | 0.37130 | 6029 ft | 241 kts | 104° |
| 2026-05-07 14:54 | 51.33367 | 0.39760 | 6034 ft | 244 kts | 103° |
| 2026-05-07 14:54 | 51.32982 | 0.42405 | 6028 ft | 246 kts | 103° |
| 2026-05-07 14:54 | 51.32598 | 0.45085 | 6033 ft | 249 kts | 103° |
| 2026-05-07 14:55 | 51.32207 | 0.47828 | 6038 ft | 262 kts | 103° |
| 2026-05-07 14:55 | 51.31781 | 0.50744 | 6281 ft | 270 kts | 103° |
| 2026-05-07 14:55 | 51.31364 | 0.53644 | 6913 ft | 267 kts | 103° |
| 2026-05-07 14:55 | 51.30940 | 0.56516 | 7491 ft | 266 kts | 104° |
| 2026-05-07 14:56 | 51.30484 | 0.59366 | 8046 ft | 267 kts | 105° |
| 2026-05-07 14:56 | 51.29992 | 0.62249 | 8589 ft | 268 kts | 105° |
| 2026-05-07 14:56 | 51.29494 | 0.65127 | 9096 ft | 270 kts | 106° |
| 2026-05-07 14:56 | 51.28980 | 0.68002 | 9609 ft | 271 kts | 107° |
| 2026-05-07 14:57 | 51.28453 | 0.70895 | 10126 ft | 271 kts | 107° |
| 2026-05-07 14:57 | 51.27923 | 0.73793 | 10628 ft | 272 kts | 107° |
| 2026-05-07 14:57 | 51.27391 | 0.76688 | 11089 ft | 274 kts | 107° |
| 2026-05-07 14:57 | 51.26853 | 0.79611 | 11541 ft | 276 kts | 107° |
| 2026-05-07 14:58 | 51.26307 | 0.82574 | 11911 ft | 280 kts | 107° |
| 2026-05-07 14:58 | 51.25749 | 0.85596 | 12231 ft | 287 kts | 107° |
| 2026-05-07 14:58 | 51.25181 | 0.88665 | 12564 ft | 292 kts | 107° |
| 2026-05-07 14:58 | 51.24600 | 0.91799 | 12910 ft | 297 kts | 107° |
| 2026-05-07 14:59 | 51.24013 | 0.94961 | 13263 ft | 301 kts | 107° |
| 2026-05-07 14:59 | 51.23411 | 0.98195 | 13628 ft | 304 kts | 107° |
| 2026-05-07 14:59 | 51.22808 | 1.01428 | 13994 ft | 307 kts | 107° |
| 2026-05-07 14:59 | 51.22198 | 1.04693 | 14365 ft | 309 kts | 107° |
| 2026-05-07 15:00 | 51.21583 | 1.07990 | 14739 ft | 311 kts | 107° |
| 2026-05-07 15:00 | 51.20968 | 1.11297 | 15114 ft | 312 kts | 107° |
| 2026-05-07 15:00 | 51.20350 | 1.14617 | 15489 ft | 313 kts | 107° |
| 2026-05-07 15:00 | 51.19735 | 1.17933 | 15860 ft | 314 kts | 107° |
| 2026-05-07 15:01 | 51.19116 | 1.21277 | 16233 ft | 314 kts | 107° |
| 2026-05-07 15:01 | 51.18497 | 1.24624 | 16604 ft | 316 kts | 107° |
| 2026-05-07 15:01 | 51.17877 | 1.27982 | 16973 ft | 317 kts | 107° |
| 2026-05-07 15:01 | 51.17225 | 1.31327 | 17341 ft | 318 kts | 110° |
| 2026-05-07 15:02 | 51.16394 | 1.34591 | 17708 ft | 319 kts | 116° |
| 2026-05-07 15:02 | 51.15348 | 1.37701 | 18075 ft | 319 kts | 122° |
| 2026-05-07 15:02 | 51.14131 | 1.40641 | 18442 ft | 319 kts | 127° |
| 2026-05-07 15:02 | 51.12798 | 1.43469 | 18811 ft | 319 kts | 129° |
| 2026-05-07 15:03 | 51.11409 | 1.46225 | 19176 ft | 319 kts | 130° |
| 2026-05-07 15:03 | 51.10172 | 1.48619 | 19493 ft | 319 kts | 131° |
| 2026-05-07 15:03 | 51.08759 | 1.51332 | 19849 ft | 319 kts | 131° |
| 2026-05-07 15:03 | 51.07338 | 1.54069 | 20154 ft | 321 kts | 131° |
| 2026-05-07 15:04 | 51.05928 | 1.56822 | 20454 ft | 323 kts | 131° |
| 2026-05-07 15:04 | 51.04485 | 1.59557 | 20756 ft | 324 kts | 133° |
| 2026-05-07 15:04 | 51.02967 | 1.62226 | 21061 ft | 325 kts | 135° |
| 2026-05-07 15:04 | 51.01386 | 1.64803 | 21367 ft | 326 kts | 137° |
| 2026-05-07 15:05 | 50.99767 | 1.67299 | 21670 ft | 326 kts | 138° |
| 2026-05-07 15:05 | 50.98108 | 1.69761 | 21973 ft | 327 kts | 139° |
| 2026-05-07 15:05 | 50.96437 | 1.72200 | 22274 ft | 327 kts | 139° |
| 2026-05-07 15:05 | 50.94758 | 1.74636 | 22561 ft | 328 kts | 139° |
| 2026-05-07 15:06 | 50.93073 | 1.77110 | 22775 ft | 331 kts | 139° |
| 2026-05-07 15:06 | 50.91393 | 1.79596 | 22997 ft | 333 kts | 139° |
| 2026-05-07 15:06 | 50.89695 | 1.82117 | 23224 ft | 336 kts | 138° |
| 2026-05-07 15:06 | 50.87986 | 1.84637 | 23454 ft | 337 kts | 139° |
| 2026-05-07 15:07 | 50.86260 | 1.87160 | 23686 ft | 339 kts | 139° |
| 2026-05-07 15:07 | 50.84526 | 1.89715 | 23921 ft | 341 kts | 139° |
| 2026-05-07 15:07 | 50.82788 | 1.92268 | 24156 ft | 342 kts | 139° |
| 2026-05-07 15:07 | 50.81043 | 1.94828 | 24392 ft | 343 kts | 139° |
| 2026-05-07 15:08 | 50.79290 | 1.97388 | 24627 ft | 343 kts | 139° |
| 2026-05-07 15:08 | 50.77544 | 1.99949 | 24861 ft | 344 kts | 139° |
| 2026-05-07 15:08 | 50.75783 | 2.02516 | 25094 ft | 345 kts | 139° |
| 2026-05-07 15:08 | 50.74027 | 2.05089 | 25326 ft | 345 kts | 139° |
| 2026-05-07 15:09 | 50.72267 | 2.07647 | 25556 ft | 345 kts | 139° |
| 2026-05-07 15:09 | 50.70495 | 2.10234 | 25785 ft | 346 kts | 139° |
| 2026-05-07 15:09 | 50.68732 | 2.12787 | 26011 ft | 346 kts | 139° |
| 2026-05-07 15:09 | 50.66965 | 2.15369 | 26235 ft | 346 kts | 139° |
| 2026-05-07 15:10 | 50.65197 | 2.17927 | 26456 ft | 346 kts | 139° |
| 2026-05-07 15:10 | 50.63430 | 2.20496 | 26675 ft | 346 kts | 139° |
| 2026-05-07 15:10 | 50.61661 | 2.23053 | 26839 ft | 348 kts | 139° |
| 2026-05-07 15:10 | 50.59875 | 2.25641 | 27003 ft | 350 kts | 139° |
| 2026-05-07 15:11 | 50.58075 | 2.28238 | 27171 ft | 353 kts | 139° |
| 2026-05-07 15:11 | 50.56265 | 2.30864 | 27344 ft | 355 kts | 139° |
| 2026-05-07 15:11 | 50.54440 | 2.33486 | 27521 ft | 357 kts | 139° |
| 2026-05-07 15:11 | 50.52607 | 2.36132 | 27702 ft | 359 kts | 139° |
| 2026-05-07 15:12 | 50.50760 | 2.38787 | 27886 ft | 361 kts | 139° |
| 2026-05-07 15:12 | 50.48907 | 2.41452 | 28072 ft | 362 kts | 139° |
| 2026-05-07 15:12 | 50.47049 | 2.44120 | 28259 ft | 363 kts | 140° |
| 2026-05-07 15:12 | 50.45180 | 2.46796 | 28447 ft | 364 kts | 139° |
| 2026-05-07 15:13 | 50.43312 | 2.49479 | 28636 ft | 365 kts | 140° |
| 2026-05-07 15:13 | 50.41443 | 2.52156 | 28819 ft | 366 kts | 140° |
| 2026-05-07 15:13 | 50.39568 | 2.54855 | 29000 ft | 366 kts | 140° |
| 2026-05-07 15:13 | 50.37689 | 2.57567 | 29183 ft | 367 kts | 140° |
| 2026-05-07 15:14 | 50.33897 | 2.63043 | 29208 ft | 377 kts | 140° |
| 2026-05-07 15:14 | 50.31943 | 2.65857 | 29068 ft | 386 kts | 140° |
| 2026-05-07 15:14 | 50.29957 | 2.68711 | 29049 ft | 390 kts | 140° |
| 2026-05-07 15:15 | 50.25920 | 2.74420 | 29088 ft | 395 kts | 140° |
| 2026-05-07 15:15 | 50.21825 | 2.80228 | 29089 ft | 400 kts | 140° |
| 2026-05-07 15:16 | 50.17670 | 2.86089 | 29086 ft | 405 kts | 140° |
| 2026-05-07 15:16 | 50.13483 | 2.91989 | 29083 ft | 408 kts | 140° |
| 2026-05-07 15:17 | 50.09254 | 2.97926 | 29086 ft | 410 kts | 140° |
| 2026-05-07 15:17 | 50.05012 | 3.03877 | 29072 ft | 413 kts | 140° |
| 2026-05-07 15:18 | 50.00727 | 3.09872 | 29066 ft | 414 kts | 140° |
| 2026-05-07 15:18 | 49.96435 | 3.15855 | 29065 ft | 415 kts | 140° |
| 2026-05-07 15:19 | 49.92134 | 3.21838 | 29068 ft | 416 kts | 140° |
| 2026-05-07 15:19 | 49.87823 | 3.27823 | 29065 ft | 417 kts | 140° |
| 2026-05-07 15:20 | 49.83495 | 3.33812 | 29065 ft | 417 kts | 140° |
| 2026-05-07 15:20 | 49.79168 | 3.39783 | 29065 ft | 418 kts | 140° |
| 2026-05-07 15:21 | 49.74828 | 3.45766 | 29065 ft | 418 kts | 140° |
| 2026-05-07 15:21 | 49.70475 | 3.51745 | 29065 ft | 419 kts | 141° |
| 2026-05-07 15:22 | 49.66119 | 3.57713 | 29065 ft | 420 kts | 141° |
| 2026-05-07 15:22 | 49.61748 | 3.63691 | 29065 ft | 420 kts | 141° |
| 2026-05-07 15:23 | 49.57373 | 3.69653 | 29065 ft | 421 kts | 141° |
| 2026-05-07 15:23 | 49.52979 | 3.75626 | 29065 ft | 422 kts | 141° |
| 2026-05-07 15:24 | 49.48587 | 3.81584 | 29065 ft | 422 kts | 141° |
| 2026-05-07 15:24 | 49.44174 | 3.87550 | 29066 ft | 423 kts | 140° |
| 2026-05-07 15:25 | 49.39767 | 3.93497 | 29064 ft | 423 kts | 141° |
| 2026-05-07 15:25 | 49.35233 | 3.99235 | 29065 ft | 422 kts | 144° |
| 2026-05-07 15:26 | 49.30480 | 4.04494 | 29065 ft | 422 kts | 147° |
| 2026-05-07 15:26 | 49.25624 | 4.09531 | 29064 ft | 421 kts | 148° |
| 2026-05-07 15:27 | 49.20796 | 4.14558 | 29064 ft | 420 kts | 147° |
| 2026-05-07 15:27 | 49.15998 | 4.19665 | 29064 ft | 419 kts | 147° |
| 2026-05-07 15:28 | 49.11224 | 4.24726 | 29064 ft | 418 kts | 147° |
| 2026-05-07 15:28 | 49.06443 | 4.29779 | 29065 ft | 418 kts | 147° |
| 2026-05-07 15:29 | 49.01675 | 4.34796 | 29064 ft | 417 kts | 147° |
| 2026-05-07 15:29 | 48.96907 | 4.39811 | 29065 ft | 416 kts | 147° |
| 2026-05-07 15:30 | 48.92151 | 4.44816 | 29065 ft | 416 kts | 147° |
| 2026-05-07 15:30 | 48.87395 | 4.49784 | 29064 ft | 416 kts | 147° |
| 2026-05-07 15:31 | 48.82625 | 4.54768 | 29065 ft | 415 kts | 147° |
| 2026-05-07 15:31 | 48.77875 | 4.59728 | 29065 ft | 415 kts | 147° |
| 2026-05-07 15:32 | 48.73113 | 4.64671 | 29065 ft | 415 kts | 147° |
| 2026-05-07 15:32 | 48.68356 | 4.69609 | 29065 ft | 415 kts | 147° |
| 2026-05-07 15:33 | 48.63589 | 4.74534 | 29064 ft | 415 kts | 147° |
| 2026-05-07 15:33 | 48.58819 | 4.79456 | 29065 ft | 415 kts | 147° |
| 2026-05-07 15:34 | 48.54052 | 4.84366 | 29065 ft | 415 kts | 147° |
| 2026-05-07 15:34 | 48.49282 | 4.89270 | 29065 ft | 415 kts | 147° |
| 2026-05-07 15:35 | 48.44515 | 4.94159 | 29063 ft | 415 kts | 147° |
| 2026-05-07 15:35 | 48.39752 | 4.99030 | 29064 ft | 414 kts | 147° |
| 2026-05-07 15:36 | 48.35006 | 5.03878 | 29062 ft | 413 kts | 148° |
| 2026-05-07 15:36 | 48.30280 | 5.08746 | 29061 ft | 412 kts | 148° |
| 2026-05-07 15:37 | 48.25554 | 5.13615 | 29059 ft | 412 kts | 148° |
| 2026-05-07 15:37 | 48.20828 | 5.18443 | 29057 ft | 411 kts | 148° |
| 2026-05-07 15:38 | 48.16068 | 5.23237 | 29054 ft | 414 kts | 148° |
| 2026-05-07 15:38 | 48.11278 | 5.28069 | 29051 ft | 417 kts | 148° |
| 2026-05-07 15:39 | 48.06444 | 5.32944 | 29051 ft | 420 kts | 148° |
| 2026-05-07 15:39 | 48.01584 | 5.37826 | 29052 ft | 423 kts | 148° |
| 2026-05-07 15:40 | 47.96680 | 5.42733 | 29049 ft | 425 kts | 148° |
| 2026-05-07 15:40 | 47.91769 | 5.47642 | 29048 ft | 427 kts | 148° |
| 2026-05-07 15:41 | 47.86826 | 5.52573 | 29048 ft | 428 kts | 148° |
| 2026-05-07 15:41 | 47.81878 | 5.57499 | 29047 ft | 429 kts | 148° |
| 2026-05-07 15:42 | 47.76909 | 5.62432 | 29048 ft | 430 kts | 148° |
| 2026-05-07 15:42 | 47.71955 | 5.67338 | 29054 ft | 430 kts | 148° |
| 2026-05-07 15:43 | 47.66969 | 5.72270 | 29051 ft | 430 kts | 148° |
| 2026-05-07 15:43 | 47.61999 | 5.77160 | 29049 ft | 430 kts | 149° |
| 2026-05-07 15:44 | 47.57016 | 5.82076 | 29049 ft | 430 kts | 148° |
| 2026-05-07 15:44 | 47.52124 | 5.87152 | 29047 ft | 431 kts | 146° |
| 2026-05-07 15:45 | 47.47403 | 5.92638 | 29046 ft | 432 kts | 143° |
| 2026-05-07 15:45 | 47.42788 | 5.98324 | 29040 ft | 433 kts | 143° |
| 2026-05-07 15:46 | 47.35800 | 6.06744 | 29040 ft | 433 kts | 144° |
| 2026-05-07 15:47 | 47.31077 | 6.12266 | 29037 ft | 433 kts | 144° |
| 2026-05-07 15:47 | 47.27157 | 6.16893 | 29035 ft | 434 kts | 144° |
| 2026-05-07 15:48 | 47.22443 | 6.22411 | 29035 ft | 434 kts | 144° |
| 2026-05-07 15:48 | 47.17725 | 6.27948 | 29035 ft | 434 kts | 144° |
| 2026-05-07 15:49 | 47.13007 | 6.33455 | 29035 ft | 434 kts | 144° |
| 2026-05-07 15:49 | 47.08265 | 6.38972 | 29035 ft | 435 kts | 144° |
| 2026-05-07 15:50 | 47.03534 | 6.44462 | 29035 ft | 435 kts | 144° |
| 2026-05-07 15:50 | 46.98796 | 6.49962 | 29035 ft | 435 kts | 144° |
| 2026-05-07 15:51 | 46.94059 | 6.55443 | 29035 ft | 435 kts | 144° |
| 2026-05-07 15:51 | 46.89313 | 6.60918 | 29035 ft | 435 kts | 144° |
| 2026-05-07 15:52 | 46.84571 | 6.66377 | 29035 ft | 435 kts | 144° |
| 2026-05-07 15:52 | 46.79821 | 6.71832 | 29034 ft | 435 kts | 145° |
| 2026-05-07 15:53 | 46.75058 | 6.77288 | 29034 ft | 436 kts | 144° |
| 2026-05-07 15:53 | 46.70271 | 6.82755 | 29019 ft | 438 kts | 144° |
| 2026-05-07 15:54 | 46.65484 | 6.88216 | 29019 ft | 438 kts | 144° |
| 2026-05-07 15:54 | 46.60673 | 6.93691 | 29024 ft | 439 kts | 144° |
| 2026-05-07 15:55 | 46.55864 | 6.99149 | 29005 ft | 440 kts | 145° |
| 2026-05-07 15:55 | 46.51049 | 7.04637 | 28971 ft | 441 kts | 145° |
| 2026-05-07 15:56 | 46.46235 | 7.10174 | 28959 ft | 441 kts | 145° |
| 2026-05-07 15:56 | 46.41416 | 7.15683 | 28958 ft | 441 kts | 146° |
| 2026-05-07 15:57 | 46.36580 | 7.21105 | 28948 ft | 441 kts | 146° |
| 2026-05-07 15:57 | 46.31726 | 7.26520 | 28946 ft | 440 kts | 146° |
| 2026-05-07 15:58 | 46.26903 | 7.31942 | 28946 ft | 440 kts | 146° |
| 2026-05-07 15:58 | 46.22057 | 7.37351 | 28947 ft | 440 kts | 146° |
| 2026-05-07 15:59 | 46.17219 | 7.42738 | 28946 ft | 440 kts | 146° |
| 2026-05-07 15:59 | 46.12373 | 7.48127 | 28946 ft | 440 kts | 146° |
| 2026-05-07 16:00 | 46.07532 | 7.53501 | 28946 ft | 440 kts | 146° |
| 2026-05-07 16:00 | 46.02687 | 7.58873 | 28946 ft | 440 kts | 147° |
| 2026-05-07 16:01 | 45.97848 | 7.64249 | 28946 ft | 441 kts | 146° |
| 2026-05-07 16:01 | 45.92992 | 7.69645 | 28947 ft | 441 kts | 146° |
| 2026-05-07 16:02 | 45.88153 | 7.75049 | 28949 ft | 442 kts | 146° |
| 2026-05-07 16:02 | 45.83402 | 7.80657 | 28956 ft | 443 kts | 143° |
| 2026-05-07 16:03 | 45.78742 | 7.86443 | 28953 ft | 444 kts | 143° |
| 2026-05-07 16:03 | 45.74087 | 7.92262 | 28951 ft | 444 kts | 143° |
| 2026-05-07 16:04 | 45.69409 | 7.98016 | 28959 ft | 444 kts | 143° |
| 2026-05-07 16:04 | 45.64714 | 8.03755 | 28974 ft | 444 kts | 143° |
| 2026-05-07 16:05 | 45.60029 | 8.09468 | 28972 ft | 444 kts | 143° |
| 2026-05-07 16:05 | 45.55465 | 8.15024 | 28971 ft | 444 kts | 143° |
| 2026-05-07 16:06 | 45.50713 | 8.20800 | 28974 ft | 444 kts | 143° |
| 2026-05-07 16:06 | 45.46006 | 8.26515 | 28976 ft | 445 kts | 143° |
| 2026-05-07 16:07 | 45.41304 | 8.32216 | 28976 ft | 445 kts | 143° |
| 2026-05-07 16:07 | 45.36593 | 8.37920 | 28976 ft | 445 kts | 143° |
| 2026-05-07 16:08 | 45.31904 | 8.43649 | 28976 ft | 445 kts | 144° |
| 2026-05-07 16:08 | 45.27244 | 8.49452 | 28975 ft | 445 kts | 144° |
| 2026-05-07 16:09 | 45.22557 | 8.55164 | 28976 ft | 445 kts | 145° |
| 2026-05-07 16:09 | 45.17826 | 8.60806 | 28976 ft | 445 kts | 146° |
| 2026-05-07 16:10 | 45.13085 | 8.66428 | 28971 ft | 445 kts | 145° |
| 2026-05-07 16:10 | 45.08360 | 8.72087 | 28962 ft | 445 kts | 145° |
| 2026-05-07 16:11 | 45.03622 | 8.77703 | 28964 ft | 445 kts | 145° |
| 2026-05-07 16:11 | 44.98885 | 8.83344 | 28962 ft | 445 kts | 146° |
| 2026-05-07 16:12 | 44.94153 | 8.88976 | 28958 ft | 446 kts | 146° |
| 2026-05-07 16:12 | 44.89416 | 8.94636 | 28960 ft | 447 kts | 146° |
| 2026-05-07 16:13 | 44.84679 | 9.00292 | 28964 ft | 447 kts | 146° |
| 2026-05-07 16:13 | 44.79901 | 9.05890 | 28972 ft | 447 kts | 146° |
| 2026-05-07 16:14 | 44.75141 | 9.11495 | 28979 ft | 447 kts | 146° |
| 2026-05-07 16:14 | 44.70367 | 9.17077 | 28984 ft | 447 kts | 146° |
| 2026-05-07 16:15 | 44.65578 | 9.22660 | 28985 ft | 447 kts | 147° |
| 2026-05-07 16:15 | 44.60636 | 9.27889 | 28996 ft | 443 kts | 152° |
| 2026-05-07 16:16 | 44.55436 | 9.32431 | 28991 ft | 440 kts | 156° |
| 2026-05-07 16:16 | 44.50140 | 9.36663 | 28993 ft | 439 kts | 157° |
| 2026-05-07 16:17 | 44.44842 | 9.40940 | 28992 ft | 440 kts | 156° |
| 2026-05-07 16:17 | 44.39581 | 9.45287 | 28991 ft | 440 kts | 156° |
| 2026-05-07 16:18 | 44.34330 | 9.49681 | 28993 ft | 440 kts | 156° |
| 2026-05-07 16:18 | 44.29081 | 9.54054 | 28993 ft | 439 kts | 156° |
| 2026-05-07 16:19 | 44.23845 | 9.58406 | 28996 ft | 439 kts | 156° |
| 2026-05-07 16:19 | 44.18603 | 9.62759 | 28999 ft | 439 kts | 156° |
| 2026-05-07 16:20 | 44.13368 | 9.67101 | 29001 ft | 438 kts | 156° |
| 2026-05-07 16:20 | 44.08128 | 9.71420 | 29005 ft | 438 kts | 156° |
| 2026-05-07 16:21 | 44.02886 | 9.75722 | 29004 ft | 438 kts | 156° |
| 2026-05-07 16:21 | 43.97637 | 9.80012 | 29003 ft | 438 kts | 156° |
| 2026-05-07 16:22 | 43.92401 | 9.84297 | 29006 ft | 438 kts | 156° |
| 2026-05-07 16:22 | 43.87159 | 9.88574 | 29005 ft | 438 kts | 156° |
| 2026-05-07 16:23 | 43.81906 | 9.92849 | 29006 ft | 438 kts | 156° |
| 2026-05-07 16:23 | 43.76662 | 9.97104 | 29006 ft | 438 kts | 156° |
| 2026-05-07 16:24 | 43.71406 | 10.01355 | 29005 ft | 438 kts | 156° |
| 2026-05-07 16:24 | 43.66151 | 10.05598 | 29006 ft | 438 kts | 156° |
| 2026-05-07 16:25 | 43.60849 | 10.09666 | 29006 ft | 435 kts | 159° |
| 2026-05-07 16:25 | 43.55421 | 10.13300 | 29005 ft | 433 kts | 162° |
| 2026-05-07 16:26 | 43.49951 | 10.16716 | 29005 ft | 432 kts | 163° |
| 2026-05-07 16:26 | 43.44469 | 10.20084 | 29006 ft | 432 kts | 162° |
| 2026-05-07 16:27 | 43.38995 | 10.23519 | 29006 ft | 433 kts | 162° |
| 2026-05-07 16:27 | 43.33638 | 10.26911 | 29006 ft | 433 kts | 162° |
| 2026-05-07 16:28 | 43.28062 | 10.30447 | 29006 ft | 433 kts | 162° |
| 2026-05-07 16:28 | 43.22602 | 10.33920 | 28998 ft | 434 kts | 162° |
| 2026-05-07 16:29 | 43.17121 | 10.37397 | 28995 ft | 434 kts | 163° |
| 2026-05-07 16:29 | 43.11634 | 10.40851 | 28994 ft | 435 kts | 163° |
| 2026-05-07 16:30 | 43.06181 | 10.44315 | 28993 ft | 424 kts | 163° |
| 2026-05-07 16:30 | 43.03564 | 10.46004 | 28982 ft | 409 kts | 163° |
| 2026-05-07 16:30 | 43.01039 | 10.47632 | 28803 ft | 397 kts | 163° |
| 2026-05-07 16:30 | 42.98570 | 10.49211 | 28588 ft | 387 kts | 163° |
| 2026-05-07 16:31 | 42.96193 | 10.50734 | 28306 ft | 371 kts | 163° |
| 2026-05-07 16:31 | 42.93871 | 10.52198 | 27987 ft | 366 kts | 164° |
| 2026-05-07 16:31 | 42.91566 | 10.53618 | 27601 ft | 365 kts | 165° |
| 2026-05-07 16:31 | 42.89236 | 10.55029 | 27079 ft | 368 kts | 164° |
| 2026-05-07 16:32 | 42.86888 | 10.56452 | 26574 ft | 371 kts | 164° |
| 2026-05-07 16:32 | 42.84518 | 10.57876 | 26075 ft | 372 kts | 163° |
| 2026-05-07 16:32 | 42.82161 | 10.59282 | 25577 ft | 367 kts | 163° |
| 2026-05-07 16:32 | 42.79850 | 10.60675 | 25084 ft | 363 kts | 163° |
| 2026-05-07 16:33 | 42.77555 | 10.62060 | 24591 ft | 358 kts | 163° |
| 2026-05-07 16:33 | 42.75296 | 10.63413 | 24104 ft | 354 kts | 162° |
| 2026-05-07 16:33 | 42.73146 | 10.65063 | 23603 ft | 358 kts | 150° |
| 2026-05-07 16:33 | 42.71287 | 10.67321 | 23110 ft | 361 kts | 138° |
| 2026-05-07 16:34 | 42.69715 | 10.69983 | 22629 ft | 361 kts | 130° |
| 2026-05-07 16:34 | 42.68357 | 10.72841 | 22154 ft | 359 kts | 125° |
| 2026-05-07 16:34 | 42.67125 | 10.75747 | 21683 ft | 354 kts | 124° |
| 2026-05-07 16:34 | 42.65939 | 10.78656 | 21212 ft | 349 kts | 124° |
| 2026-05-07 16:35 | 42.64757 | 10.81509 | 20742 ft | 344 kts | 124° |
| 2026-05-07 16:35 | 42.63556 | 10.84294 | 20275 ft | 339 kts | 126° |
| 2026-05-07 16:35 | 42.62341 | 10.87001 | 19812 ft | 335 kts | 126° |
| 2026-05-07 16:35 | 42.61114 | 10.89660 | 19350 ft | 330 kts | 127° |
| 2026-05-07 16:36 | 42.59887 | 10.92276 | 18891 ft | 326 kts | 127° |
| 2026-05-07 16:36 | 42.58670 | 10.94840 | 18436 ft | 323 kts | 127° |
| 2026-05-07 16:36 | 42.57463 | 10.97394 | 17982 ft | 320 kts | 126° |
| 2026-05-07 16:36 | 42.56276 | 10.99918 | 17532 ft | 316 kts | 126° |
| 2026-05-07 16:37 | 42.55093 | 11.02421 | 17042 ft | 314 kts | 126° |
| 2026-05-07 16:37 | 42.53917 | 11.04896 | 16548 ft | 313 kts | 127° |
| 2026-05-07 16:37 | 42.52763 | 11.07390 | 16056 ft | 311 kts | 126° |
| 2026-05-07 16:37 | 42.51626 | 11.09874 | 15568 ft | 309 kts | 126° |
| 2026-05-07 16:38 | 42.50485 | 11.12327 | 15083 ft | 306 kts | 126° |
| 2026-05-07 16:38 | 42.49347 | 11.14751 | 14603 ft | 304 kts | 126° |
| 2026-05-07 16:38 | 42.48230 | 11.17153 | 14127 ft | 302 kts | 125° |
| 2026-05-07 16:38 | 42.47116 | 11.19559 | 13703 ft | 302 kts | 125° |
| 2026-05-07 16:39 | 42.45991 | 11.21965 | 13313 ft | 303 kts | 124° |
| 2026-05-07 16:39 | 42.44946 | 11.24435 | 12927 ft | 304 kts | 121° |
| 2026-05-07 16:39 | 42.44003 | 11.27004 | 12542 ft | 305 kts | 117° |
| 2026-05-07 16:39 | 42.43151 | 11.29640 | 12162 ft | 306 kts | 115° |
| 2026-05-07 16:40 | 42.42358 | 11.32315 | 11785 ft | 306 kts | 113° |
| 2026-05-07 16:40 | 42.41604 | 11.35007 | 11411 ft | 306 kts | 112° |
| 2026-05-07 16:40 | 42.40866 | 11.37692 | 11041 ft | 305 kts | 112° |
| 2026-05-07 16:40 | 42.40131 | 11.40382 | 10726 ft | 303 kts | 112° |
| 2026-05-07 16:41 | 42.39413 | 11.43006 | 10574 ft | 294 kts | 112° |
| 2026-05-07 16:41 | 42.38710 | 11.45578 | 10399 ft | 288 kts | 112° |
| 2026-05-07 16:41 | 42.38027 | 11.48084 | 10190 ft | 283 kts | 112° |
| 2026-05-07 16:41 | 42.37569 | 11.49751 | 10017 ft | 282 kts | 112° |
| 2026-05-07 16:42 | 42.36878 | 11.52216 | 9766 ft | 279 kts | 112° |
| 2026-05-07 16:42 | 42.36202 | 11.54656 | 9515 ft | 277 kts | 112° |
| 2026-05-07 16:42 | 42.35525 | 11.57090 | 9262 ft | 276 kts | 112° |
| 2026-05-07 16:42 | 42.34849 | 11.59507 | 9011 ft | 274 kts | 112° |
| 2026-05-07 16:43 | 42.34182 | 11.61913 | 8759 ft | 273 kts | 112° |
| 2026-05-07 16:43 | 42.33509 | 11.64290 | 8513 ft | 271 kts | 112° |
| 2026-05-07 16:43 | 42.32833 | 11.66653 | 8265 ft | 269 kts | 112° |
| 2026-05-07 16:43 | 42.32157 | 11.69006 | 8017 ft | 268 kts | 112° |
| 2026-05-07 16:44 | 42.31487 | 11.71336 | 7772 ft | 266 kts | 112° |
| 2026-05-07 16:44 | 42.30835 | 11.73590 | 7534 ft | 265 kts | 112° |
| 2026-05-07 16:44 | 42.30167 | 11.75901 | 7290 ft | 264 kts | 112° |
| 2026-05-07 16:44 | 42.29514 | 11.78213 | 7045 ft | 263 kts | 111° |
| 2026-05-07 16:45 | 42.28868 | 11.80519 | 6804 ft | 262 kts | 111° |
| 2026-05-07 16:45 | 42.28229 | 11.82811 | 6559 ft | 261 kts | 111° |
| 2026-05-07 16:45 | 42.27589 | 11.85094 | 6322 ft | 260 kts | 111° |
| 2026-05-07 16:45 | 42.26941 | 11.87368 | 6083 ft | 259 kts | 111° |
| 2026-05-07 16:46 | 42.26299 | 11.89635 | 5850 ft | 258 kts | 111° |
| 2026-05-07 16:46 | 42.25663 | 11.91882 | 5666 ft | 255 kts | 111° |
| 2026-05-07 16:46 | 42.25032 | 11.94106 | 5488 ft | 252 kts | 111° |
| 2026-05-07 16:46 | 42.24406 | 11.96303 | 5315 ft | 250 kts | 111° |
| 2026-05-07 16:47 | 42.23789 | 11.98473 | 5162 ft | 246 kts | 111° |
| 2026-05-07 16:47 | 42.23177 | 12.00609 | 5044 ft | 242 kts | 111° |
| 2026-05-07 16:47 | 42.22576 | 12.02699 | 5001 ft | 235 kts | 111° |
| 2026-05-07 16:47 | 42.21988 | 12.04740 | 4993 ft | 234 kts | 111° |
| 2026-05-07 16:48 | 42.21398 | 12.06789 | 5002 ft | 233 kts | 111° |
| 2026-05-07 16:48 | 42.20813 | 12.08817 | 5010 ft | 232 kts | 111° |
| 2026-05-07 16:48 | 42.20226 | 12.10847 | 5005 ft | 232 kts | 111° |
| 2026-05-07 16:48 | 42.19641 | 12.12871 | 5001 ft | 232 kts | 111° |
| 2026-05-07 16:49 | 42.19063 | 12.14884 | 5005 ft | 231 kts | 111° |
| 2026-05-07 16:49 | 42.18494 | 12.16906 | 5004 ft | 230 kts | 111° |
| 2026-05-07 16:49 | 42.17918 | 12.18924 | 4992 ft | 230 kts | 111° |
| 2026-05-07 16:49 | 42.17343 | 12.20929 | 4987 ft | 228 kts | 111° |
| 2026-05-07 16:50 | 42.16781 | 12.22910 | 4996 ft | 224 kts | 111° |
| 2026-05-07 16:50 | 42.16226 | 12.24846 | 4986 ft | 220 kts | 111° |
| 2026-05-07 16:50 | 42.15683 | 12.26756 | 4980 ft | 214 kts | 111° |
| 2026-05-07 16:50 | 42.15155 | 12.28592 | 4986 ft | 206 kts | 111° |
| 2026-05-07 16:51 | 42.14654 | 12.30353 | 4981 ft | 196 kts | 111° |
| 2026-05-07 16:51 | 42.14174 | 12.32025 | 4860 ft | 191 kts | 111° |
| 2026-05-07 16:51 | 42.13697 | 12.33687 | 4678 ft | 189 kts | 111° |
| 2026-05-07 16:51 | 42.13056 | 12.35222 | 4486 ft | 188 kts | 127° |
| 2026-05-07 16:52 | 42.12155 | 12.36480 | 4290 ft | 188 kts | 139° |
| 2026-05-07 16:52 | 42.11131 | 12.37560 | 4125 ft | 186 kts | 143° |
| 2026-05-07 16:52 | 42.10091 | 12.38551 | 4019 ft | 180 kts | 145° |
| 2026-05-07 16:52 | 42.09060 | 12.39457 | 3925 ft | 174 kts | 147° |
| 2026-05-07 16:53 | 42.08060 | 12.40261 | 3970 ft | 158 kts | 150° |
| 2026-05-07 16:53 | 42.07166 | 12.40920 | 3938 ft | 139 kts | 152° |
| 2026-05-07 16:53 | 42.06330 | 12.41488 | 3972 ft | 130 kts | 154° |
| 2026-05-07 16:53 | 42.05540 | 12.41995 | 3961 ft | 121 kts | 155° |
| 2026-05-07 16:54 | 42.04787 | 12.42460 | 3971 ft | 117 kts | 155° |
| 2026-05-07 16:54 | 42.04056 | 12.42906 | 3991 ft | 115 kts | 155° |
| 2026-05-07 16:54 | 42.03319 | 12.43356 | 4002 ft | 119 kts | 155° |
| 2026-05-07 16:54 | 42.02534 | 12.43843 | 4024 ft | 131 kts | 155° |
| 2026-05-07 16:55 | 42.01672 | 12.44392 | 4027 ft | 145 kts | 154° |
| 2026-05-07 16:55 | 42.00721 | 12.45015 | 4018 ft | 158 kts | 154° |
| 2026-05-07 16:55 | 41.99703 | 12.45706 | 4015 ft | 169 kts | 153° |
| 2026-05-07 16:55 | 41.98638 | 12.46453 | 4004 ft | 176 kts | 152° |
| 2026-05-07 16:56 | 41.97544 | 12.47239 | 3999 ft | 181 kts | 152° |
| 2026-05-07 16:56 | 41.96425 | 12.48054 | 3942 ft | 185 kts | 152° |
| 2026-05-07 16:56 | 41.94131 | 12.49681 | 3506 ft | 186 kts | 153° |
| 2026-05-07 16:57 | 41.92987 | 12.50481 | 3192 ft | 185 kts | 153° |
| 2026-05-07 16:57 | 41.91851 | 12.51266 | 2889 ft | 184 kts | 153° |
| 2026-05-07 16:57 | 41.90722 | 12.52044 | 2617 ft | 182 kts | 153° |
| 2026-05-07 16:57 | 41.89614 | 12.52810 | 2353 ft | 174 kts | 153° |
| 2026-05-07 16:58 | 41.88572 | 12.53535 | 2095 ft | 164 kts | 153° |
| 2026-05-07 16:58 | 41.87593 | 12.54208 | 1879 ft | 154 kts | 154° |
| 2026-05-07 16:58 | 41.86655 | 12.54850 | 1695 ft | 149 kts | 154° |
| 2026-05-07 16:58 | 41.85739 | 12.55476 | 1511 ft | 146 kts | 153° |
| 2026-05-07 16:59 | 41.84841 | 12.56079 | 1326 ft | 144 kts | 153° |
| 2026-05-07 16:59 | 41.83952 | 12.56703 | 1153 ft | 146 kts | 153° |
| 2026-05-07 16:59 | 41.83049 | 12.57356 | 969 ft | 148 kts | 153° |
| 2026-05-07 16:59 | 41.82148 | 12.57991 | 786 ft | 143 kts | 155° |
| 2026-05-07 17:00 | 41.81289 | 12.58561 | 596 ft | 135 kts | 156° |
| 2026-05-07 17:00 | 41.80482 | 12.59107 | 450 ft | 117 kts | 156° |
| 2026-05-07 17:00 | 41.79861 | 12.59523 | 434 ft | 79 kts | 154° |
| 2026-05-07 17:00 | 41.79537 | 12.59752 | 434 ft | 32 kts | 149° |
| 2026-05-07 17:01 | 41.79404 | 12.59851 | 434 ft | 17 kts | 153° |
| 2026-05-07 17:01 | 41.79309 | 12.59917 | 434 ft | 12 kts | 155° |
| 2026-05-07 17:01 | 41.79248 | 12.59883 | 434 ft | 9 kts | 244° |
| 2026-05-07 17:01 | 41.79231 | 12.59838 | 434 ft | 3 kts | 244° |
| 2026-05-07 17:02 | 41.79217 | 12.59797 | 434 ft | 5 kts | 257° |
| 2026-05-07 17:02 | 41.79245 | 12.59757 | 434 ft | 10 kts | 334° |
| 2026-05-07 17:02 | 41.79322 | 12.59703 | 434 ft | 14 kts | 331° |
| 2026-05-07 17:02 | 41.79411 | 12.59636 | 434 ft | 16 kts | 329° |
| 2026-05-07 17:03 | 41.79512 | 12.59568 | 434 ft | 17 kts | 333° |
| 2026-05-07 17:03 | 41.79624 | 12.59493 | 434 ft | 19 kts | 333° |
| 2026-05-07 17:03 | 41.79745 | 12.59411 | 434 ft | 20 kts | 332° |
| 2026-05-07 17:03 | 41.79865 | 12.59324 | 434 ft | 19 kts | 333° |
| 2026-05-07 17:04 | 41.79980 | 12.59246 | 434 ft | 18 kts | 330° |
| 2026-05-07 17:04 | 41.80079 | 12.59175 | 434 ft | 13 kts | 338° |
| 2026-05-07 17:04 | 41.80158 | 12.59123 | 434 ft | 9 kts | 332° |
| 2026-05-07 17:04 | 41.80174 | 12.59091 | 434 ft | 3 kts | 236° |
| 2026-05-07 17:05 | 41.80143 | 12.59061 | 434 ft | 7 kts | 230° |
| 2026-05-07 17:05 | 41.80110 | 12.59000 | 434 ft | 7 kts | 259° |
| 2026-05-07 17:05 | 41.80123 | 12.58972 | 434 ft | 4 kts | 323° |
| 2026-05-07 17:05 | 41.80152 | 12.58944 | 434 ft | 0 kts | 323° |